Time;durP1;ratioP1;P1;durP2;ratioP2;P2;SDS_P1;SDS_P2;PMS_P1;PMS_P2;Temp;Humidity;BMP_temperature;BMP_pressure;BME280_temperature;BME280_humidity;BME280_pressure;Samples;Min_cycle;Max_cycle;Signal;HPM_P1;HPM_P2
2021/04/10 00:00:20;;;;;;;3.72;0.95;;;15.40;41.00;;;;;;6248824;28;20456;-81
2021/04/10 00:03:21;;;;;;;2.33;0.93;;;15.40;40.40;;;;;;6214416;28;20030;-81
2021/04/10 00:06:22;;;;;;;9.35;0.98;;;15.40;40.40;;;;;;6207519;28;20034;-81
2021/04/10 00:09:26;;;;;;;3.28;1.20;;;15.50;40.20;;;;;;6264945;28;20355;-81
2021/04/10 00:12:27;;;;;;;9.63;1.48;;;15.50;40.20;;;;;;6255566;28;20029;-81
2021/04/10 00:15:29;;;;;;;8.70;1.13;;;15.50;40.30;;;;;;6273702;28;20114;-80
2021/04/10 00:18:29;;;;;;;19.50;1.85;;;15.40;40.60;;;;;;6255691;28;20048;-81
2021/04/10 00:21:32;;;;;;;17.85;2.10;;;15.40;41.00;;;;;;6247680;28;20417;-80
2021/04/10 00:24:36;;;;;;;5.65;1.27;;;15.40;41.10;;;;;;6257632;28;20037;-80
2021/04/10 00:27:45;;;;;;;15.60;1.08;;;15.30;41.30;;;;;;6275083;28;20037;-81
2021/04/10 00:30:46;;;;;;;15.70;1.75;;;15.30;41.50;;;;;;6251802;28;20120;-80
2021/04/10 00:33:47;;;;;;;3.10;1.17;;;15.20;41.80;;;;;;6259599;28;20045;-81
2021/04/10 00:36:49;;;;;;;9.07;1.38;;;15.20;41.90;;;;;;6276736;28;20045;-81
2021/04/10 00:39:50;;;;;;;4.88;0.98;;;15.20;41.90;;;;;;6256753;28;20380;-80
2021/04/10 00:42:51;;;;;;;2.30;0.82;;;15.20;41.80;;;;;;6254693;28;20048;-81
2021/04/10 00:45:54;;;;;;;5.30;0.98;;;15.10;41.70;;;;;;6255243;28;20487;-81
2021/04/10 00:48:55;;;;;;;5.82;1.30;;;15.20;41.60;;;;;;6255943;28;20437;-81
2021/04/10 00:51:57;;;;;;;6.95;1.20;;;15.20;41.40;;;;;;6256099;28;20041;-80
2021/04/10 00:55:02;;;;;;;5.72;1.15;;;15.20;41.30;;;;;;6246506;28;20041;-79
2021/04/10 00:58:06;;;;;;;4.30;1.00;;;15.30;40.60;;;;;;6256774;28;20124;-80
2021/04/10 01:01:08;;;;;;;2.92;0.90;;;15.30;39.70;;;;;;6271602;28;20051;-80
2021/04/10 01:04:13;;;;;;;6.65;1.02;;;15.40;38.80;;;;;;6260772;28;20037;-80
2021/04/10 01:07:15;;;;;;;9.93;1.05;;;15.50;38.50;;;;;;6279091;28;20040;-80
2021/04/10 01:10:16;;;;;;;4.72;1.00;;;15.50;38.60;;;;;;6235363;28;20036;-81
2021/04/10 01:13:45;;;;;;;10.05;1.33;;;15.50;38.60;;;;;;6260001;28;20067;-80
2021/04/10 01:16:58;;;;;;;4.80;1.17;;;15.50;39.10;;;;;;6243015;28;20037;-81
2021/04/10 01:20:28;;;;;;;7.90;1.33;;;15.40;39.30;;;;;;6259461;28;20124;-81
2021/04/10 01:24:13;;;;;;;3.78;1.17;;;15.40;38.30;;;;;;6206842;28;20037;-81
2021/04/10 01:27:39;;;;;;;2.75;0.93;;;15.40;38.60;;;;;;6254423;28;20033;-80
2021/04/10 01:30:41;;;;;;;5.30;1.40;;;15.40;39.40;;;;;;6254792;28;20032;-81
2021/04/10 01:33:48;;;;;;;8.30;0.93;;;15.40;39.80;;;;;;6243267;28;20037;-80
2021/04/10 01:36:50;;;;;;;2.28;0.80;;;15.40;39.80;;;;;;6215997;28;20041;-81
2021/04/10 01:39:52;;;;;;;3.75;1.05;;;15.40;39.90;;;;;;6221191;28;20056;-81
2021/04/10 01:42:55;;;;;;;3.08;0.80;;;15.30;39.80;;;;;;6229944;28;20029;-80
2021/04/10 01:45:58;;;;;;;2.72;0.80;;;15.40;39.40;;;;;;6247846;28;20081;-79
2021/04/10 01:49:05;;;;;;;1.88;0.65;;;15.30;37.70;;;;;;6248528;28;20041;-80
2021/04/10 01:52:06;;;;;;;1.63;0.90;;;15.40;38.10;;;;;;6255252;28;20535;-81
2021/04/10 01:55:11;;;;;;;1.88;0.93;;;15.40;38.40;;;;;;6245079;28;20112;-81
2021/04/10 01:58:19;;;;;;;3.17;0.90;;;15.40;38.70;;;;;;6213292;28;20033;-80
2021/04/10 02:01:25;;;;;;;1.85;0.80;;;15.40;38.80;;;;;;6229115;28;20080;-80
2021/04/10 02:04:29;;;;;;;2.78;0.70;;;15.40;39.20;;;;;;6255495;28;20075;-81
2021/04/10 02:07:32;;;;;;;1.98;1.00;;;15.30;39.40;;;;;;6245529;28;20045;-81
2021/04/10 02:10:39;;;;;;;3.95;1.10;;;15.40;39.50;;;;;;6244530;28;20364;-80
2021/04/10 02:13:56;;;;;;;1.88;1.02;;;15.30;39.60;;;;;;6231045;28;20258;-80
2021/04/10 02:17:18;;;;;;;4.50;1.40;;;15.20;39.80;;;;;;6273487;28;20040;-80
2021/04/10 02:20:26;;;;;;;5.13;0.93;;;15.20;40.10;;;;;;6234526;28;20048;-80
2021/04/10 02:23:28;;;;;;;3.72;0.90;;;15.20;40.50;;;;;;6253602;28;20325;-81
2021/04/10 02:26:38;;;;;;;2.35;0.88;;;15.10;40.60;;;;;;6254429;28;20041;-80
2021/04/10 02:29:44;;;;;;;3.15;0.88;;;15.00;41.10;;;;;;6237491;28;20062;-80
2021/04/10 02:32:53;;;;;;;2.05;0.93;;;15.00;41.10;;;;;;6238019;28;20056;-79
2021/04/10 02:35:57;;;;;;;3.45;0.80;;;15.00;41.20;;;;;;6258072;28;20029;-80
2021/04/10 02:38:58;;;;;;;5.57;0.95;;;14.90;41.50;;;;;;6255953;28;20041;-80
2021/04/10 02:42:02;;;;;;;5.00;0.98;;;14.90;41.60;;;;;;6247262;28;20033;-80
2021/04/10 02:45:06;;;;;;;7.22;1.10;;;14.90;41.50;;;;;;6254449;28;20336;-81
2021/04/10 02:48:11;;;;;;;4.38;0.88;;;14.70;41.30;;;;;;6228683;28;20112;-82
2021/04/10 02:51:14;;;;;;;1.20;0.60;;;14.80;41.30;;;;;;6255217;28;20045;-80
2021/04/10 02:54:20;;;;;;;4.72;0.90;;;14.80;41.50;;;;;;6255519;28;20037;-81
2021/04/10 02:57:24;;;;;;;7.82;0.82;;;14.80;41.60;;;;;;6266398;28;20029;-79
2021/04/10 03:00:26;;;;;;;4.13;0.82;;;14.80;42.30;;;;;;6248877;28;20045;-82
2021/04/10 03:03:32;;;;;;;10.68;1.00;;;14.80;41.80;;;;;;6230998;28;20060;-80
2021/04/10 03:06:34;;;;;;;2.03;0.93;;;14.80;41.80;;;;;;6246565;28;20041;-81
2021/04/10 03:09:40;;;;;;;1.48;1.08;;;14.70;41.60;;;;;;6202842;28;20503;-81
2021/04/10 03:12:44;;;;;;;4.60;1.20;;;14.70;41.40;;;;;;6191299;28;20042;-81
2021/04/10 03:15:53;;;;;;;5.38;1.30;;;14.80;41.40;;;;;;6190991;28;20104;-81
2021/04/10 03:18:58;;;;;;;2.78;0.85;;;14.80;41.20;;;;;;6236875;28;20041;-80
2021/04/10 03:22:04;;;;;;;;;;;14.80;41.10;;;;;;6215298;28;20041;-80
2021/04/10 03:25:07;;;;;;;3.50;1.08;;;14.80;41.20;;;;;;6219978;28;20260;-80
2021/04/10 03:28:10;;;;;;;2.60;0.93;;;14.80;41.10;;;;;;6234306;28;20041;-81
2021/04/10 03:31:15;;;;;;;4.03;1.02;;;14.80;41.00;;;;;;6247343;28;20467;-80
2021/04/10 03:34:18;;;;;;;2.38;0.73;;;14.80;41.00;;;;;;6215038;28;20088;-81
2021/04/10 03:37:19;;;;;;;5.90;1.25;;;14.80;40.90;;;;;;6214374;28;20068;-80
2021/04/10 03:40:23;;;;;;;4.75;1.30;;;14.80;41.00;;;;;;6228266;28;20043;-80
2021/04/10 03:43:26;;;;;;;3.97;1.27;;;14.80;41.10;;;;;;6230922;28;20120;-80
2021/04/10 03:46:29;;;;;;;6.10;1.08;;;14.80;41.00;;;;;;6214453;28;20037;-80
2021/04/10 03:49:31;;;;;;;2.28;0.85;;;14.70;41.00;;;;;;6213733;28;20472;-81
2021/04/10 03:52:35;;;;;;;6.18;0.88;;;14.70;41.10;;;;;;6232361;28;20052;-81
2021/04/10 03:55:35;;;;;;;1.48;0.90;;;14.70;41.20;;;;;;6231152;28;20037;-79
2021/04/10 03:58:38;;;;;;;2.50;0.90;;;14.70;41.20;;;;;;6251614;28;20033;-80
2021/04/10 04:01:41;;;;;;;2.47;0.93;;;14.70;41.20;;;;;;6215543;28;20038;-82
2021/04/10 04:04:44;;;;;;;2.03;0.80;;;14.70;41.20;;;;;;6247008;28;20052;-82
2021/04/10 04:07:45;;;;;;;6.10;0.88;;;14.70;41.20;;;;;;6233280;28;20037;-81
2021/04/10 04:10:46;;;;;;;3.90;0.93;;;14.70;41.00;;;;;;6231141;28;20141;-81
2021/04/10 04:13:47;;;;;;;3.10;0.88;;;14.70;41.00;;;;;;6247624;28;20402;-81
2021/04/10 04:16:48;;;;;;;1.08;0.63;;;14.60;41.00;;;;;;6231485;28;20039;-81
2021/04/10 04:19:50;;;;;;;1.48;0.90;;;14.60;41.00;;;;;;6231250;28;20042;-81
2021/04/10 04:22:52;;;;;;;1.55;0.98;;;14.60;41.10;;;;;;6221367;28;20033;-81
2021/04/10 04:25:53;;;;;;;3.45;1.15;;;14.60;41.00;;;;;;6230976;28;20041;-80
2021/04/10 04:28:54;;;;;;;1.65;0.77;;;14.60;41.00;;;;;;6231302;28;20038;-80
2021/04/10 04:31:55;;;;;;;3.53;0.80;;;14.60;41.00;;;;;;6247126;28;20488;-81
2021/04/10 04:34:56;;;;;;;2.80;1.30;;;14.60;40.90;;;;;;6230045;28;20033;-80
2021/04/10 04:37:57;;;;;;;2.78;1.10;;;14.70;41.00;;;;;;6207610;28;20037;-81
2021/04/10 04:41:01;;;;;;;1.25;0.80;;;14.70;41.00;;;;;;6237136;28;20072;-81
2021/04/10 04:44:02;;;;;;;4.10;0.80;;;14.80;41.10;;;;;;6235919;28;20072;-80
2021/04/10 04:47:03;;;;;;;5.65;1.20;;;14.80;41.10;;;;;;6250761;28;20033;-81
2021/04/10 04:50:05;;;;;;;1.75;0.90;;;14.80;41.10;;;;;;6235792;28;20072;-81
2021/04/10 04:53:06;;;;;;;4.50;1.20;;;14.80;41.20;;;;;;6226163;28;20052;-80
2021/04/10 04:56:11;;;;;;;1.48;0.80;;;14.80;41.00;;;;;;6225316;28;20037;-80
2021/04/10 04:59:12;;;;;;;3.78;1.02;;;14.80;41.10;;;;;;6254571;28;20056;-80
2021/04/10 05:02:15;;;;;;;5.32;1.00;;;14.90;41.10;;;;;;6227785;28;20033;-80
2021/04/10 05:05:16;;;;;;;4.68;1.38;;;14.90;41.20;;;;;;6236556;28;20442;-81
2021/04/10 05:08:16;;;;;;;3.22;0.98;;;14.80;41.40;;;;;;6216707;28;20056;-81
2021/04/10 05:11:17;;;;;;;1.95;0.70;;;14.80;41.60;;;;;;6235429;28;20106;-82
2021/04/10 05:14:18;;;;;;;7.13;1.40;;;14.70;41.90;;;;;;6235230;28;20337;-81
2021/04/10 05:17:19;;;;;;;4.53;1.08;;;14.70;42.10;;;;;;6251948;28;20457;-81
2021/04/10 05:20:20;;;;;;;1.58;0.90;;;14.60;42.20;;;;;;6208732;28;20095;-80
2021/04/10 05:23:23;;;;;;;3.22;0.82;;;14.60;42.30;;;;;;6215586;28;20136;-80
2021/04/10 05:26:24;;;;;;;1.70;0.93;;;14.60;42.40;;;;;;6209731;28;20045;-80
2021/04/10 05:29:25;;;;;;;4.75;1.50;;;14.60;42.40;;;;;;6235291;28;20456;-81
2021/04/10 05:32:26;;;;;;;7.95;1.13;;;14.70;42.40;;;;;;6227774;28;20033;-80
2021/04/10 05:35:29;;;;;;;2.63;0.75;;;14.70;42.40;;;;;;6200239;28;20436;-81
2021/04/10 05:38:30;;;;;;;5.22;0.85;;;14.70;42.30;;;;;;6226988;28;20080;-80
2021/04/10 05:41:32;;;;;;;5.07;0.90;;;14.80;42.30;;;;;;6228484;28;20085;-81
2021/04/10 05:44:34;;;;;;;4.28;1.15;;;14.80;42.20;;;;;;6242480;28;20041;-80
2021/04/10 05:47:35;;;;;;;6.65;1.13;;;14.80;41.70;;;;;;6252946;28;20061;-81
2021/04/10 05:50:36;;;;;;;2.13;0.90;;;14.80;41.70;;;;;;6236291;28;21601;-80
2021/04/10 05:53:41;;;;;;;4.78;1.10;;;14.90;41.80;;;;;;6217913;28;20124;-80
2021/04/10 05:56:42;;;;;;;2.03;0.68;;;14.90;41.90;;;;;;6250013;28;20026;-81
2021/04/10 05:59:43;;;;;;;1.65;0.80;;;14.90;41.80;;;;;;6231788;28;20129;-81
2021/04/10 06:02:51;;;;;;;8.95;0.93;;;14.90;41.60;;;;;;6240206;28;20030;-80
2021/04/10 06:05:54;;;;;;;2.47;1.00;;;14.90;41.50;;;;;;6246219;28;20033;-80
2021/04/10 06:08:54;;;;;;;4.63;1.00;;;14.90;41.40;;;;;;6248879;28;20057;-80
2021/04/10 06:11:56;;;;;;;2.30;0.90;;;14.90;41.40;;;;;;6232400;28;20375;-80
2021/04/10 06:14:57;;;;;;;2.03;1.00;;;14.90;41.30;;;;;;6232924;28;20068;-80
2021/04/10 06:17:58;;;;;;;6.15;1.05;;;14.90;41.10;;;;;;6247507;28;20037;-80
2021/04/10 06:20:59;;;;;;;4.32;1.10;;;15.00;41.00;;;;;;6216469;28;20029;-80
2021/04/10 06:24:00;;;;;;;3.20;1.05;;;15.00;41.00;;;;;;6232810;28;20030;-79
2021/04/10 06:27:03;;;;;;;9.88;1.35;;;15.00;40.90;;;;;;6232636;28;20040;-80
2021/04/10 06:30:06;;;;;;;3.33;0.90;;;15.00;41.20;;;;;;6231335;28;20029;-80
2021/04/10 06:33:07;;;;;;;1.42;0.95;;;15.00;41.20;;;;;;6231503;28;20025;-80
2021/04/10 06:36:08;;;;;;;11.57;1.70;;;15.00;41.30;;;;;;6215727;28;20381;-85
2021/04/10 06:39:09;;;;;;;3.20;1.23;;;15.00;41.30;;;;;;6208863;28;20037;-80
2021/04/10 06:42:11;;;;;;;4.90;1.38;;;15.10;41.30;;;;;;6220810;28;20113;-80
2021/04/10 06:45:12;;;;;;;2.67;1.08;;;15.10;41.10;;;;;;6225006;28;20045;-81
2021/04/10 06:48:14;;;;;;;4.00;1.02;;;15.20;40.80;;;;;;6217598;28;20045;-82
2021/04/10 06:51:15;;;;;;;2.13;0.60;;;15.30;40.30;;;;;;6205533;28;20120;-81
2021/04/10 06:54:18;;;;;;;2.15;0.80;;;15.40;40.10;;;;;;6215462;28;20033;-80
2021/04/10 06:57:22;;;;;;;1.88;1.02;;;15.40;39.20;;;;;;6232615;28;20034;-80
2021/04/10 07:00:25;;;;;;;3.45;0.68;;;15.60;38.00;;;;;;6230540;28;20057;-79
2021/04/10 07:03:26;;;;;;;0.95;0.50;;;15.70;37.60;;;;;;6237113;28;20042;-81
2021/04/10 07:06:27;;;;;;;1.45;0.70;;;15.80;36.50;;;;;;6224734;28;20113;-80
2021/04/10 07:09:29;;;;;;;5.38;1.10;;;15.90;35.80;;;;;;6231078;28;20042;-81
2021/04/10 07:12:30;;;;;;;1.83;0.88;;;16.00;35.70;;;;;;6216834;28;20347;-83
2021/04/10 07:15:32;;;;;;;1.65;0.65;;;16.10;35.20;;;;;;6268628;28;20056;-81
2021/04/10 07:18:33;;;;;;;1.00;0.52;;;16.20;35.10;;;;;;6242555;28;20044;-82
2021/04/10 07:21:34;;;;;;;7.97;0.93;;;16.30;34.90;;;;;;6231442;28;20116;-83
2021/04/10 07:24:43;;;;;;;1.48;0.70;;;16.30;34.80;;;;;;6249938;28;20045;-82
2021/04/10 07:27:44;;;;;;;1.05;0.50;;;16.30;34.40;;;;;;6217412;28;20445;-81
2021/04/10 07:30:55;;;;;;;2.22;0.80;;;16.50;33.50;;;;;;6234153;28;20075;-82
2021/04/10 07:34:00;;;;;;;0.70;0.40;;;16.50;33.00;;;;;;6248847;28;20464;-81
2021/04/10 07:37:02;;;;;;;3.30;0.57;;;16.60;31.90;;;;;;6232105;28;20455;-81
2021/04/10 07:40:22;;;;;;;2.45;0.90;;;16.70;31.60;;;;;;6221313;28;20061;-81
2021/04/10 07:43:28;;;;;;;0.60;0.55;;;16.80;31.40;;;;;;6207660;28;20037;-83
2021/04/10 07:46:29;;;;;;;2.83;0.40;;;16.90;30.40;;;;;;6205538;28;20087;-80
2021/04/10 07:49:30;;;;;;;2.42;1.00;;;17.10;30.10;;;;;;6238066;28;20042;-80
2021/04/10 07:52:31;;;;;;;8.85;0.80;;;17.30;30.00;;;;;;6226122;28;20091;-80
2021/04/10 07:55:34;;;;;;;0.60;0.32;;;17.40;29.60;;;;;;6230810;28;20374;-80
2021/04/10 07:58:37;;;;;;;1.08;0.65;;;17.50;29.00;;;;;;6216622;28;20111;-82
2021/04/10 08:01:38;;;;;;;0.85;0.40;;;17.60;28.60;;;;;;6224655;28;20399;-81
2021/04/10 08:04:40;;;;;;;3.13;0.63;;;17.60;28.40;;;;;;6212746;28;20033;-81
2021/04/10 08:07:51;;;;;;;2.70;0.55;;;17.70;28.10;;;;;;6238070;28;20095;-81
2021/04/10 08:11:02;;;;;;;1.20;0.60;;;17.80;27.90;;;;;;6247484;28;20041;-80
2021/04/10 08:14:12;;;;;;;5.43;0.70;;;17.80;28.10;;;;;;6252615;28;20052;-80
2021/04/10 08:17:31;;;;;;;1.08;0.70;;;17.90;27.80;;;;;;6236314;28;20030;-85
2021/04/10 08:20:32;;;;;;;0.90;0.50;;;17.90;27.20;;;;;;6263911;28;20363;-83
2021/04/10 08:23:33;;;;;;;0.68;0.40;;;18.00;27.20;;;;;;6253566;28;20033;-84
2021/04/10 08:26:35;;;;;;;1.33;0.60;;;18.00;27.20;;;;;;6260683;28;20048;-85
2021/04/10 08:29:41;;;;;;;1.05;0.50;;;18.00;27.50;;;;;;6262626;28;20036;-87
2021/04/10 08:32:42;;;;;;;9.70;0.90;;;18.10;27.40;;;;;;6243386;28;20106;-84
2021/04/10 08:35:44;;;;;;;2.78;0.73;;;18.10;27.10;;;;;;6269692;28;20033;-85
2021/04/10 08:38:46;;;;;;;4.05;0.90;;;18.20;27.40;;;;;;6245643;28;20045;-83
2021/04/10 08:41:53;;;;;;;10.57;1.60;;;18.30;27.30;;;;;;6244776;28;20033;-84
2021/04/10 08:44:55;;;;;;;1.65;0.82;;;18.30;27.30;;;;;;6261494;28;20037;-84
2021/04/10 08:48:02;;;;;;;2.58;0.82;;;18.30;27.80;;;;;;6263482;28;20028;-85
2021/04/10 08:51:07;;;;;;;3.77;0.90;;;18.30;28.20;;;;;;6253707;28;20041;-84
2021/04/10 08:54:11;;;;;;;3.63;0.93;;;18.30;28.50;;;;;;6266920;28;20060;-85
2021/04/10 08:57:18;;;;;;;5.40;1.10;;;18.40;28.50;;;;;;6241096;28;20036;-84
2021/04/10 09:00:33;;;;;;;2.30;0.63;;;18.30;28.70;;;;;;6232905;28;20045;-85
2021/04/10 09:03:47;;;;;;;6.53;1.30;;;18.30;28.80;;;;;;6226365;28;20047;-85
2021/04/10 09:06:49;;;;;;;1.77;0.70;;;18.30;28.80;;;;;;6224128;28;20040;-84
2021/04/10 09:09:51;;;;;;;2.25;0.80;;;18.30;29.00;;;;;;6247795;28;20048;-86
2021/04/10 09:13:23;;;;;;;4.30;1.23;;;18.30;29.20;;;;;;6219564;28;20037;-85
2021/04/10 09:16:29;;;;;;;1.60;0.70;;;18.20;29.70;;;;;;6109871;29;20044;-86
2021/04/10 09:19:35;;;;;;;4.93;1.10;;;18.20;30.10;;;;;;6122968;29;20051;-85
2021/04/10 09:22:39;;;;;;;2.67;1.00;;;18.00;30.50;;;;;;6120990;29;20123;-86
2021/04/10 09:25:40;;;;;;;2.83;1.10;;;17.90;30.60;;;;;;6137170;29;20047;-85
2021/04/10 09:28:59;;;;;;;1.15;0.93;;;17.80;30.90;;;;;;6136497;29;20039;-84
2021/04/10 09:32:04;;;;;;;3.15;0.88;;;17.70;31.40;;;;;;6134251;29;20468;-83
2021/04/10 09:35:07;;;;;;;5.25;0.82;;;17.70;31.40;;;;;;6137449;29;20297;-84
2021/04/10 09:38:07;;;;;;;3.20;1.02;;;17.70;31.10;;;;;;6124626;29;20035;-82
2021/04/10 09:41:09;;;;;;;7.13;0.93;;;17.80;31.20;;;;;;6128290;29;20036;-80
2021/04/10 09:44:10;;;;;;;5.88;1.10;;;17.80;31.00;;;;;;6127038;29;20027;-81
2021/04/10 09:47:11;;;;;;;2.70;0.70;;;18.00;30.60;;;;;;6118797;29;20111;-80
2021/04/10 09:50:18;;;;;;;1.27;0.52;;;18.20;29.50;;;;;;6129124;29;20123;-81
2021/04/10 09:53:23;;;;;;;8.98;0.65;;;18.40;28.90;;;;;;6208325;28;20030;-81
2021/04/10 09:56:24;;;;;;;0.93;0.50;;;18.70;28.10;;;;;;6251346;28;20057;-80
2021/04/10 09:59:27;;;;;;;0.32;0.30;;;18.90;27.80;;;;;;6213495;28;20154;-79
2021/04/10 10:02:28;;;;;;;0.85;0.52;;;19.10;27.70;;;;;;6228104;28;20110;-81
2021/04/10 10:05:32;;;;;;;1.00;0.73;;;19.40;27.70;;;;;;6232916;28;20037;-80
2021/04/10 10:08:33;;;;;;;1.38;0.70;;;19.40;27.50;;;;;;6208626;28;20072;-81
2021/04/10 10:11:34;;;;;;;1.50;0.85;;;19.60;27.40;;;;;;6236293;28;20507;-80
2021/04/10 10:14:46;;;;;;;0.98;0.50;;;19.70;27.50;;;;;;6250966;28;20026;-80
2021/04/10 10:17:47;;;;;;;1.35;0.40;;;19.80;27.30;;;;;;6231197;28;20095;-79
2021/04/10 10:21:13;;;;;;;2.28;0.40;;;20.00;27.10;;;;;;6219005;28;20037;-79
2021/04/10 10:24:20;;;;;;;1.88;0.70;;;20.10;27.20;;;;;;6249187;28;20108;-81
2021/04/10 10:27:34;;;;;;;0.68;0.50;;;20.40;27.10;;;;;;6248596;28;20140;-80
2021/04/10 10:30:36;;;;;;;0.93;0.57;;;20.60;26.70;;;;;;6231563;28;20463;-78
2021/04/10 10:33:38;;;;;;;2.10;0.47;;;20.80;26.40;;;;;;6216149;28;20052;-79
2021/04/10 10:36:41;;;;;;;0.70;0.45;;;20.90;26.40;;;;;;6233253;28;20037;-79
2021/04/10 10:39:43;;;;;;;2.38;0.60;;;21.00;26.30;;;;;;6232244;28;20060;-79
2021/04/10 10:42:44;;;;;;;1.60;0.60;;;21.00;26.30;;;;;;6248568;28;20129;-80
2021/04/10 10:45:47;;;;;;;3.28;0.50;;;21.00;26.40;;;;;;6240921;28;20052;-80
2021/04/10 10:48:50;;;;;;;1.00;0.50;;;21.00;26.50;;;;;;6231531;28;20095;-81
2021/04/10 10:51:52;;;;;;;2.50;0.60;;;21.00;26.50;;;;;;6231295;28;20087;-81
2021/04/10 10:55:00;;;;;;;2.65;0.70;;;20.80;26.50;;;;;;6215769;28;20033;-82
2021/04/10 10:58:02;;;;;;;0.52;0.30;;;20.70;26.70;;;;;;6230892;28;20069;-83
2021/04/10 11:01:33;;;;;;;8.05;0.90;;;20.60;26.90;;;;;;6216726;28;20029;-82
2021/04/10 11:04:39;;;;;;;1.58;0.75;;;20.50;27.20;;;;;;6185152;28;20504;-84
2021/04/10 11:07:42;;;;;;;3.17;0.50;;;20.40;27.40;;;;;;6172318;28;20548;-82
2021/04/10 11:10:46;;;;;;;2.45;0.43;;;20.40;27.70;;;;;;6180278;28;20030;-82
2021/04/10 11:13:48;;;;;;;1.52;0.50;;;20.30;27.70;;;;;;6197191;28;20469;-82
2021/04/10 11:16:50;;;;;;;2.88;0.50;;;20.30;27.80;;;;;;6170513;28;20023;-81
2021/04/10 11:19:51;;;;;;;3.78;0.50;;;20.30;27.80;;;;;;6180806;28;20038;-81
2021/04/10 11:23:08;;;;;;;1.52;0.50;;;20.20;28.00;;;;;;6180327;28;20114;-82
2021/04/10 11:26:10;;;;;;;0.73;0.55;;;20.20;28.10;;;;;;6188129;28;20045;-82
2021/04/10 11:29:39;;;;;;;1.63;0.75;;;20.30;28.10;;;;;;6180314;28;20038;-82
2021/04/10 11:32:44;;;;;;;0.75;0.45;;;20.20;28.20;;;;;;6108130;29;20043;-81
2021/04/10 11:35:54;;;;;;;0.75;0.60;;;20.30;28.40;;;;;;6114989;29;20400;-83
2021/04/10 11:39:05;;;;;;;1.60;0.40;;;20.20;28.40;;;;;;6120766;29;20122;-81
2021/04/10 11:42:06;;;;;;;1.40;0.68;;;20.20;28.40;;;;;;6123844;29;20043;-82
2021/04/10 11:45:28;;;;;;;2.13;0.60;;;20.30;28.50;;;;;;6115817;29;20058;-82
2021/04/10 11:48:38;;;;;;;2.95;0.70;;;20.20;28.60;;;;;;6123589;29;20352;-82
2021/04/10 11:51:38;;;;;;;4.47;0.73;;;20.20;28.60;;;;;;6122533;29;20151;-82
2021/04/10 11:54:40;;;;;;;1.50;0.70;;;20.30;28.70;;;;;;6120360;29;20040;-80
2021/04/10 11:57:42;;;;;;;1.15;0.77;;;20.40;28.80;;;;;;6138676;29;20330;-82
2021/04/10 12:00:43;;;;;;;0.40;0.40;;;20.40;28.80;;;;;;6137390;29;20039;-83
2021/04/10 12:03:54;;;;;;;1.02;0.50;;;20.30;28.80;;;;;;6133482;29;20055;-79
2021/04/10 12:07:08;;;;;;;2.60;0.80;;;20.30;29.00;;;;;;6134402;29;20061;-78
2021/04/10 12:10:11;;;;;;;3.85;0.60;;;20.30;29.10;;;;;;6232113;28;20043;-79
2021/04/10 12:13:12;;;;;;;1.55;0.55;;;20.30;29.20;;;;;;6255752;28;20452;-79
2021/04/10 12:16:14;;;;;;;3.58;0.60;;;20.40;29.20;;;;;;6229090;28;20069;-78
2021/04/10 12:19:24;;;;;;;3.65;0.80;;;20.40;29.20;;;;;;6254284;28;20032;-79
2021/04/10 12:22:25;;;;;;;2.70;1.00;;;20.40;29.20;;;;;;6243084;28;20036;-78
2021/04/10 12:25:26;;;;;;;1.60;0.88;;;20.50;29.10;;;;;;6254661;28;20509;-79
2021/04/10 12:28:29;;;;;;;1.40;0.55;;;20.50;28.90;;;;;;6238708;28;20044;-78
2021/04/10 12:31:30;;;;;;;4.05;1.13;;;20.60;28.90;;;;;;6270523;28;20040;-79
2021/04/10 12:34:31;;;;;;;1.75;0.60;;;20.80;28.80;;;;;;6258241;28;20060;-78
2021/04/10 12:37:31;;;;;;;1.70;0.70;;;21.00;28.60;;;;;;6273029;28;20037;-79
2021/04/10 12:40:33;;;;;;;1.50;0.52;;;21.20;28.40;;;;;;6272187;28;20073;-78
2021/04/10 12:43:34;;;;;;;3.53;0.40;;;21.30;28.20;;;;;;6255150;28;20083;-78
2021/04/10 12:46:35;;;;;;;0.63;0.50;;;21.50;28.10;;;;;;6255555;28;20052;-79
2021/04/10 12:49:36;;;;;;;0.43;0.30;;;21.60;27.90;;;;;;6256685;28;20095;-79
2021/04/10 12:52:37;;;;;;;0.93;0.47;;;21.80;27.80;;;;;;6262695;28;20037;-79
2021/04/10 12:55:39;;;;;;;1.73;0.70;;;21.80;27.70;;;;;;6255529;28;20029;-79
2021/04/10 12:58:40;;;;;;;6.35;1.02;;;21.80;27.70;;;;;;6258707;28;20033;-78
2021/04/10 13:01:42;;;;;;;2.47;0.65;;;21.70;27.80;;;;;;6242120;28;20060;-79
2021/04/10 13:04:43;;;;;;;1.27;0.60;;;21.70;27.80;;;;;;6241923;28;20073;-78
2021/04/10 13:07:44;;;;;;;1.38;0.63;;;21.70;27.80;;;;;;6257126;28;20415;-78
2021/04/10 13:10:45;;;;;;;1.65;0.60;;;21.70;27.90;;;;;;6251093;28;20041;-78
2021/04/10 13:13:46;;;;;;;0.55;0.50;;;21.70;27.80;;;;;;6249617;28;20030;-78
2021/04/10 13:16:47;;;;;;;5.93;0.50;;;21.60;27.90;;;;;;6228159;28;20097;-78
2021/04/10 13:19:49;;;;;;;2.38;0.52;;;21.60;28.10;;;;;;6216742;28;20033;-79
2021/04/10 13:22:49;;;;;;;0.93;0.40;;;21.60;28.10;;;;;;6252339;28;20029;-78
2021/04/10 13:25:50;;;;;;;0.82;0.68;;;21.60;28.20;;;;;;6232085;28;20044;-78
2021/04/10 13:28:51;;;;;;;0.50;0.45;;;21.60;28.20;;;;;;6225128;28;20033;-79
2021/04/10 13:31:52;;;;;;;1.58;0.50;;;21.60;28.20;;;;;;6233513;28;20037;-78
2021/04/10 13:34:53;;;;;;;7.53;0.90;;;21.60;28.20;;;;;;6217665;28;20037;-79
2021/04/10 13:37:55;;;;;;;0.70;0.40;;;21.60;28.20;;;;;;6234794;28;20044;-79
2021/04/10 13:40:56;;;;;;;1.65;0.52;;;21.70;28.20;;;;;;6250549;28;20042;-79
2021/04/10 13:43:58;;;;;;;5.93;0.63;;;21.70;28.20;;;;;;6224633;28;20120;-79
2021/04/10 13:46:59;;;;;;;0.77;0.43;;;21.70;28.30;;;;;;6250861;28;20424;-79
2021/04/10 13:50:00;;;;;;;5.53;0.70;;;21.70;28.30;;;;;;6224828;28;20044;-79
2021/04/10 13:53:01;;;;;;;2.90;0.60;;;21.70;28.20;;;;;;6225455;28;20033;-79
2021/04/10 13:56:02;;;;;;;1.40;0.60;;;21.80;28.20;;;;;;6247877;28;20064;-78
2021/04/10 13:59:03;;;;;;;0.85;0.63;;;21.80;28.20;;;;;;6192494;28;20061;-80
2021/04/10 14:02:04;;;;;;;1.95;0.52;;;21.80;28.20;;;;;;6164240;28;20464;-79
2021/04/10 14:05:16;;;;;;;1.67;0.40;;;21.80;28.20;;;;;;6214267;28;20056;-78
2021/04/10 14:08:20;;;;;;;1.00;0.40;;;21.80;28.30;;;;;;6231443;28;20048;-80
2021/04/10 14:11:24;;;;;;;0.70;0.35;;;21.90;28.30;;;;;;6232958;28;20033;-78
2021/04/10 14:14:25;;;;;;;0.57;0.40;;;21.90;28.30;;;;;;6249484;28;20034;-79
2021/04/10 14:17:27;;;;;;;1.60;0.60;;;21.90;28.20;;;;;;6248932;28;20045;-79
2021/04/10 14:20:32;;;;;;;2.63;0.43;;;22.00;28.20;;;;;;6232081;28;20449;-80
2021/04/10 14:23:38;;;;;;;6.00;0.70;;;22.00;28.30;;;;;;6232828;28;20065;-78
2021/04/10 14:26:39;;;;;;;0.85;0.50;;;22.00;28.30;;;;;;6249016;28;20072;-78
2021/04/10 14:29:42;;;;;;;0.85;0.30;;;22.10;28.40;;;;;;6233133;28;20088;-78
2021/04/10 14:32:43;;;;;;;2.35;0.52;;;22.10;28.50;;;;;;6233106;28;20365;-77
2021/04/10 14:35:47;;;;;;;0.68;0.40;;;22.20;28.60;;;;;;6217023;28;20050;-79
2021/04/10 14:38:48;;;;;;;1.50;0.60;;;22.20;28.50;;;;;;6215156;28;20034;-78
2021/04/10 14:41:49;;;;;;;1.90;0.50;;;22.20;28.50;;;;;;6232469;28;20041;-79
2021/04/10 14:44:50;;;;;;;0.45;0.32;;;22.20;29.00;;;;;;6232827;28;20037;-78
2021/04/10 14:47:51;;;;;;;1.25;0.40;;;22.20;28.50;;;;;;6230668;28;20037;-78
2021/04/10 14:50:53;;;;;;;1.42;0.60;;;22.20;28.50;;;;;;6231984;28;20045;-78
2021/04/10 14:53:54;;;;;;;1.20;0.77;;;22.10;28.60;;;;;;6216503;28;20029;-78
2021/04/10 14:56:55;;;;;;;0.70;0.40;;;22.10;28.60;;;;;;6231110;28;20030;-79
2021/04/10 14:59:56;;;;;;;1.10;0.40;;;22.10;28.70;;;;;;6215507;28;20203;-78
2021/04/10 15:02:57;;;;;;;1.45;0.50;;;22.00;28.80;;;;;;6232799;28;20137;-79
2021/04/10 15:06:01;;;;;;;4.57;0.50;;;21.90;28.90;;;;;;6232514;28;20052;-80
2021/04/10 15:09:03;;;;;;;2.83;0.80;;;21.90;29.00;;;;;;6242878;28;20120;-78
2021/04/10 15:12:04;;;;;;;3.20;0.70;;;21.90;29.10;;;;;;6257023;28;20040;-80
2021/04/10 15:15:07;;;;;;;3.10;1.00;;;21.70;29.50;;;;;;6258507;28;20029;-81
2021/04/10 15:18:09;;;;;;;2.50;0.95;;;21.70;29.40;;;;;;6275260;28;20405;-79
2021/04/10 15:21:09;;;;;;;4.00;1.13;;;21.60;29.50;;;;;;6240232;28;20029;-79
2021/04/10 15:24:11;;;;;;;1.58;0.95;;;21.40;29.70;;;;;;6257634;28;20035;-79
2021/04/10 15:27:12;;;;;;;5.72;1.00;;;21.30;30.00;;;;;;6259088;28;20060;-79
2021/04/10 15:30:13;;;;;;;3.03;1.00;;;21.10;30.00;;;;;;6259538;28;20383;-78
2021/04/10 15:33:15;;;;;;;4.15;1.55;;;21.10;30.20;;;;;;6241801;28;20033;-78
2021/04/10 15:36:18;;;;;;;6.28;1.13;;;21.00;30.40;;;;;;6256730;28;20367;-79
2021/04/10 15:39:21;;;;;;;5.05;1.33;;;20.90;30.60;;;;;;6241098;28;20114;-80
2021/04/10 15:42:24;;;;;;;1.60;0.93;;;20.80;30.60;;;;;;6273415;28;20032;-78
2021/04/10 15:45:25;;;;;;;1.70;0.90;;;20.80;30.70;;;;;;6257231;28;20520;-80
2021/04/10 15:48:27;;;;;;;2.50;0.90;;;20.80;30.80;;;;;;6273340;28;20507;-78
2021/04/10 15:51:28;;;;;;;6.70;1.27;;;20.70;30.90;;;;;;6274201;28;20040;-79
2021/04/10 15:54:30;;;;;;;2.95;0.90;;;20.70;31.10;;;;;;6240956;28;20060;-80
2021/04/10 15:57:31;;;;;;;2.60;1.00;;;20.60;31.20;;;;;;6240652;28;20055;-80